Time;durP1;ratioP1;P1;durP2;ratioP2;P2;SDS_P1;SDS_P2;PMS_P1;PMS_P2;Temp;Humidity;BMP_temperature;BMP_pressure;BME280_temperature;BME280_humidity;BME280_pressure;Samples;Min_cycle;Max_cycle;Signal;HPM_P1;HPM_P2
2023/04/02 00:01:50;;;;;;;4.30;4.07;;;;;;;;;;5096518;28;20043;-93
2023/04/02 00:04:25;;;;;;;4.53;4.30;;;;;;;;;;5096330;28;20052;-93
2023/04/02 00:06:55;;;;;;;4.45;4.25;;;;;;;;;;5096058;28;20056;-92
2023/04/02 00:09:32;;;;;;;3.88;3.63;;;;;;;;;;5096159;28;20446;-92
2023/04/02 00:12:14;;;;;;;3.42;3.33;;;;;;;;;;5096063;28;20500;-93
2023/04/02 00:14:45;;;;;;;3.50;3.40;;;;;;;;;;5095805;28;20048;-93
2023/04/02 00:17:11;;;;;;;;;;;;;;;;;;5096830;28;20097;-92
2023/04/02 00:19:41;;;;;;;2.45;2.35;;;;;;;;;;5096358;28;19919;-92
2023/04/02 00:22:09;;;;;;;3.33;3.13;;;;;;;;;;5095982;28;20048;-93
2023/04/02 00:24:39;;;;;;;2.40;2.08;;;;;;;;;;5096211;28;20105;-93
2023/04/02 00:27:10;;;;;;;1.65;1.55;;;;;;;;;;5095728;28;20052;-93
2023/04/02 00:29:36;;;;;;;2.15;2.05;;;;;;;;;;5095770;28;20055;-93
2023/04/02 00:32:04;;;;;;;2.25;2.15;;;;;;;;;;5095453;28;20055;-93
2023/04/02 00:34:36;;;;;;;2.75;2.65;;;;;;;;;;5095730;28;20048;-93
2023/04/02 00:37:03;;;;;;;2.42;2.33;;;;;;;;;;5095668;28;20506;-92
2023/04/02 00:39:31;;;;;;;2.53;2.42;;;;;;;;;;5095834;28;20056;-93
2023/04/02 00:42:04;;;;;;;2.53;2.42;;;;;;;;;;5095909;28;20052;-93
2023/04/02 00:44:32;;;;;;;3.28;3.17;;;;;;;;;;5096244;28;20440;-93
2023/04/02 00:47:03;;;;;;;3.55;3.35;;;;;;;;;;5095046;28;20052;-93
2023/04/02 00:49:32;;;;;;;3.50;3.40;;;;;;;;;;5094689;28;20052;-91
2023/04/02 00:52:00;;;;;;;2.67;2.58;;;;;;;;;;5095399;28;20079;-92
2023/04/02 00:54:29;;;;;;;3.97;3.78;;;;;;;;;;5095273;28;20044;-93
2023/04/02 00:56:57;;;;;;;4.10;3.95;;;;;;;;;;5094751;28;20101;-92
2023/04/02 00:59:26;;;;;;;3.72;3.50;;;;;;;;;;5094727;28;20054;-92
2023/04/02 01:02:00;;;;;;;5.70;5.25;;;;;;;;;;5094686;28;20040;-93
2023/04/02 01:04:28;;;;;;;3.85;3.72;;;;;;;;;;5095361;28;20052;-93
2023/04/02 01:06:55;;;;;;;2.50;2.40;;;;;;;;;;5089082;28;20063;-93
2023/04/02 01:09:26;;;;;;;2.95;2.85;;;;;;;;;;5095189;28;20139;-92
2023/04/02 01:12:03;;;;;;;2.75;2.55;;;;;;;;;;5095324;28;20380;-93
2023/04/02 01:14:36;;;;;;;2.72;2.63;;;;;;;;;;5094874;28;20048;-92
2023/04/02 01:17:14;;;;;;;4.63;4.43;;;;;;;;;;5094398;28;20047;-93
2023/04/02 01:19:41;;;;;;;;;;;;;;;;;;5095493;28;20063;-92
2023/04/02 01:22:09;;;;;;;3.13;3.03;;;;;;;;;;5091031;28;20347;-93
2023/04/02 01:24:37;;;;;;;2.83;2.70;;;;;;;;;;5094730;28;20098;-94
2023/04/02 01:27:07;;;;;;;4.07;3.75;;;;;;;;;;5095189;28;20135;-93
2023/04/02 01:29:37;;;;;;;3.30;3.15;;;;;;;;;;5094992;28;20388;-93
2023/04/02 01:32:05;;;;;;;2.10;2.00;;;;;;;;;;5094884;28;20048;-93
2023/04/02 01:34:32;;;;;;;3.08;2.95;;;;;;;;;;5095111;28;20058;-93
2023/04/02 01:37:09;;;;;;;3.00;2.80;;;;;;;;;;5094766;28;20142;-93
2023/04/02 01:39:42;;;;;;;4.40;4.20;;;;;;;;;;5092515;28;20044;-94
2023/04/02 01:42:10;;;;;;;3.65;3.47;;;;;;;;;;5094386;28;20087;-94
2023/04/02 01:44:40;;;;;;;9.13;8.77;;;;;;;;;;5094959;28;20416;-93
2023/04/02 01:47:10;;;;;;;3.13;2.92;;;;;;;;;;5094601;28;20048;-93
2023/04/02 01:49:38;;;;;;;2.60;2.50;;;;;;;;;;5095133;28;20499;-93
2023/04/02 01:52:06;;;;;;;3.20;3.10;;;;;;;;;;5094795;28;20048;-93
2023/04/02 01:54:33;;;;;;;2.72;2.63;;;;;;;;;;5094979;28;20408;-93
2023/04/02 01:57:00;;;;;;;4.35;4.15;;;;;;;;;;5084449;28;20044;-93
2023/04/02 01:59:28;;;;;;;3.63;3.33;;;;;;;;;;5094777;28;20136;-93
2023/04/02 02:01:59;;;;;;;3.78;3.63;;;;;;;;;;5094530;28;20062;-92
2023/04/02 02:04:25;;;;;;;3.60;3.40;;;;;;;;;;5094416;28;20549;-94
2023/04/02 02:06:52;;;;;;;3.58;3.47;;;;;;;;;;5094341;28;20085;-93
2023/04/02 02:09:21;;;;;;;4.22;4.03;;;;;;;;;;5094450;28;20048;-92
2023/04/02 02:11:48;;;;;;;2.97;2.80;;;;;;;;;;5094166;28;20098;-92
2023/04/02 02:14:16;;;;;;;3.20;3.10;;;;;;;;;;5089857;28;20093;-93
2023/04/02 02:16:43;;;;;;;4.00;3.80;;;;;;;;;;5094903;28;20089;-93
2023/04/02 02:19:17;;;;;;;4.72;4.53;;;;;;;;;;5094614;28;20603;-92
2023/04/02 02:21:44;;;;;;;3.65;3.50;;;;;;;;;;5093938;28;20552;-93
2023/04/02 02:24:17;;;;;;;3.40;3.30;;;;;;;;;;5094053;28;20101;-92
2023/04/02 02:26:45;;;;;;;5.53;5.25;;;;;;;;;;5094117;28;20047;-92
2023/04/02 02:29:14;;;;;;;4.88;4.68;;;;;;;;;;5090496;28;20453;-92
2023/04/02 02:31:43;;;;;;;4.00;3.83;;;;;;;;;;5097866;28;20078;-93
2023/04/02 02:34:16;;;;;;;4.75;4.55;;;;;;;;;;5097940;28;20120;-93
2023/04/02 02:36:49;;;;;;;3.72;3.47;;;;;;;;;;5098108;28;20059;-94
2023/04/02 02:39:17;;;;;;;3.35;3.15;;;;;;;;;;5097880;28;20048;-93
2023/04/02 02:41:46;;;;;;;2.60;2.50;;;;;;;;;;5098126;28;20051;-93
2023/04/02 02:44:15;;;;;;;3.45;3.35;;;;;;;;;;5098098;28;20480;-93
2023/04/02 02:46:44;;;;;;;3.58;3.38;;;;;;;;;;5096887;28;20070;-93
2023/04/02 02:49:15;;;;;;;3.47;3.38;;;;;;;;;;5078274;28;20049;-93
2023/04/02 02:51:44;;;;;;;3.22;3.05;;;;;;;;;;5077662;28;20110;-93
2023/04/02 02:54:13;;;;;;;3.00;2.85;;;;;;;;;;5077058;28;20057;-92
2023/04/02 02:56:42;;;;;;;2.83;2.72;;;;;;;;;;5077510;28;20045;-93
2023/04/02 02:59:10;;;;;;;2.60;2.50;;;;;;;;;;5077363;28;20057;-93
2023/04/02 03:01:37;;;;;;;4.13;3.83;;;;;;;;;;5077463;28;20054;-93
2023/04/02 03:04:03;;;;;;;4.00;3.80;;;;;;;;;;5077124;28;20040;-93
2023/04/02 03:06:30;;;;;;;3.20;3.10;;;;;;;;;;5089618;28;20040;-93
2023/04/02 03:09:01;;;;;;;3.30;3.20;;;;;;;;;;5097898;28;20101;-94
2023/04/02 03:11:31;;;;;;;2.30;2.20;;;;;;;;;;5097184;28;20052;-93
2023/04/02 03:14:01;;;;;;;3.55;3.35;;;;;;;;;;5097593;28;20056;-93
2023/04/02 03:16:30;;;;;;;4.07;3.88;;;;;;;;;;5097690;28;20136;-93
2023/04/02 03:19:02;;;;;;;2.28;2.17;;;;;;;;;;5097523;28;20055;-93
2023/04/02 03:21:31;;;;;;;3.05;2.92;;;;;;;;;;5097054;28;20122;-93
2023/04/02 03:24:00;;;;;;;2.33;2.22;;;;;;;;;;5097359;28;20048;-92
2023/04/02 03:26:30;;;;;;;2.42;2.33;;;;;;;;;;5097169;28;20051;-92
2023/04/02 03:29:01;;;;;;;5.50;5.30;;;;;;;;;;5097232;28;20050;-92
2023/04/02 03:31:32;;;;;;;3.97;3.78;;;;;;;;;;5096711;28;20048;-92
2023/04/02 03:33:59;;;;;;;4.43;4.22;;;;;;;;;;5096907;28;20047;-93
2023/04/02 03:36:28;;;;;;;5.43;5.18;;;;;;;;;;5096647;28;20052;-93
2023/04/02 03:38:59;;;;;;;4.10;3.90;;;;;;;;;;5096319;28;20545;-93
2023/04/02 03:41:29;;;;;;;3.10;3.00;;;;;;;;;;5096536;28;20415;-94
2023/04/02 03:43:58;;;;;;;3.45;3.33;;;;;;;;;;5096305;28;20108;-93
2023/04/02 03:46:29;;;;;;;2.50;2.40;;;;;;;;;;5097133;28;20441;-93
2023/04/02 03:48:57;;;;;;;3.92;3.63;;;;;;;;;;5096990;28;20052;-93
2023/04/02 03:51:27;;;;;;;4.18;3.97;;;;;;;;;;5096931;28;20134;-92
2023/04/02 03:53:55;;;;;;;4.20;3.85;;;;;;;;;;5096702;28;20868;-92
2023/04/02 03:56:26;;;;;;;2.90;2.80;;;;;;;;;;5096568;28;20076;-93
2023/04/02 03:58:52;;;;;;;;;;;;;;;;;;5096481;28;20052;-92
2023/04/02 04:01:20;;;;;;;3.78;3.65;;;;;;;;;;5095850;28;20310;-92
2023/04/02 04:03:50;;;;;;;2.28;2.17;;;;;;;;;;5095950;28;20083;-92
2023/04/02 04:06:20;;;;;;;2.90;2.80;;;;;;;;;;5096323;28;20101;-92
2023/04/02 04:08:49;;;;;;;3.80;3.60;;;;;;;;;;5095947;28;20496;-92
2023/04/02 04:11:16;;;;;;;4.05;3.85;;;;;;;;;;5096510;28;20079;-92
2023/04/02 04:13:46;;;;;;;3.95;3.75;;;;;;;;;;5096618;28;20101;-92
2023/04/02 04:16:16;;;;;;;3.42;3.25;;;;;;;;;;5096344;28;20454;-92
2023/04/02 04:18:47;;;;;;;2.35;2.25;;;;;;;;;;5093372;28;20044;-92
2023/04/02 04:21:14;;;;;;;;;;;;;;;;;;5096498;28;20044;-92
2023/04/02 04:23:48;;;;;;;2.72;2.53;;;;;;;;;;5096024;28;20341;-91
2023/04/02 04:26:19;;;;;;;2.15;2.05;;;;;;;;;;5095959;28;20055;-93
2023/04/02 04:28:46;;;;;;;;;;;;;;;;;;5096242;28;20052;-93
2023/04/02 04:31:19;;;;;;;1.95;1.85;;;;;;;;;;5095359;28;19928;-92
2023/04/02 04:33:49;;;;;;;3.75;3.60;;;;;;;;;;5095552;28;20462;-93
2023/04/02 04:36:27;;;;;;;4.22;4.03;;;;;;;;;;5095766;28;20048;-93
2023/04/02 04:38:58;;;;;;;2.92;2.83;;;;;;;;;;5096040;28;20132;-93
2023/04/02 04:41:26;;;;;;;3.28;3.15;;;;;;;;;;5107276;28;20051;-92
2023/04/02 04:43:55;;;;;;;5.80;5.50;;;;;;;;;;5116339;28;20044;-92
2023/04/02 04:46:25;;;;;;;4.50;4.30;;;;;;;;;;5116164;28;20048;-93
2023/04/02 04:48:54;;;;;;;2.78;2.67;;;;;;;;;;5115933;28;20051;-93
2023/04/02 04:51:22;;;;;;;4.10;3.90;;;;;;;;;;5113628;28;20479;-93
2023/04/02 04:53:49;;;;;;;4.10;3.90;;;;;;;;;;5095289;28;20096;-93
2023/04/02 04:56:20;;;;;;;4.68;4.47;;;;;;;;;;5095266;28;20048;-92
2023/04/02 04:58:48;;;;;;;5.10;4.90;;;;;;;;;;5095354;28;20056;-93
2023/04/02 05:01:17;;;;;;;6.00;3.63;;;;;;;;;;5095858;28;20101;-94
2023/04/02 05:03:46;;;;;;;4.70;4.50;;;;;;;;;;5095291;28;20445;-93
2023/04/02 05:06:15;;;;;;;2.92;2.83;;;;;;;;;;5095679;28;20052;-93
2023/04/02 05:08:45;;;;;;;4.30;4.10;;;;;;;;;;5094812;28;20048;-93
2023/04/02 05:11:14;;;;;;;4.40;4.18;;;;;;;;;;5094636;28;20480;-93
2023/04/02 05:13:47;;;;;;;6.32;5.85;;;;;;;;;;5095260;28;20093;-93
2023/04/02 05:16:17;;;;;;;4.82;4.63;;;;;;;;;;5095300;28;20079;-93
2023/04/02 05:18:45;;;;;;;3.63;3.53;;;;;;;;;;5094829;28;20419;-94
2023/04/02 05:21:16;;;;;;;4.78;4.47;;;;;;;;;;5095304;28;20044;-93
2023/04/02 05:23:45;;;;;;;5.05;4.75;;;;;;;;;;5095005;28;20047;-94
2023/04/02 05:26:14;;;;;;;4.82;4.53;;;;;;;;;;5094419;28;20044;-93
2023/04/02 05:28:44;;;;;;;4.55;4.25;;;;;;;;;;5094078;28;20101;-93
2023/04/02 05:31:14;;;;;;;4.70;4.47;;;;;;;;;;5094477;28;20048;-93
2023/04/02 05:33:45;;;;;;;4.93;4.72;;;;;;;;;;5094716;28;20121;-93
2023/04/02 05:36:12;;;;;;;3.70;3.50;;;;;;;;;;5094389;28;20052;-93
2023/04/02 05:38:40;;;;;;;5.40;5.13;;;;;;;;;;5094438;28;20048;-93
2023/04/02 05:41:08;;;;;;;6.18;5.88;;;;;;;;;;5102426;28;20044;-93
2023/04/02 05:43:37;;;;;;;7.90;6.60;;;;;;;;;;5114449;28;20128;-94
2023/04/02 05:46:08;;;;;;;6.60;6.28;;;;;;;;;;5093630;28;20454;-93
2023/04/02 05:48:34;;;;;;;;;;;;;;;;;;5094847;28;20117;-91
2023/04/02 05:51:03;;;;;;;4.53;4.32;;;;;;;;;;5094429;28;19920;-92
2023/04/02 05:53:33;;;;;;;5.82;5.53;;;;;;;;;;5094508;28;20608;-94
2023/04/02 05:56:01;;;;;;;5.82;5.53;;;;;;;;;;5075358;28;20049;-93
2023/04/02 05:58:31;;;;;;;8.90;8.20;;;;;;;;;;5087795;28;20466;-94
2023/04/02 06:01:06;;;;;;;9.05;8.68;;;;;;;;;;5093841;28;20420;-93
2023/04/02 06:03:38;;;;;;;5.97;5.47;;;;;;;;;;5094011;28;20048;-93
2023/04/02 06:06:07;;;;;;;5.82;5.20;;;;;;;;;;5098097;28;20503;-93
2023/04/02 06:08:36;;;;;;;5.82;5.45;;;;;;;;;;5098581;28;20055;-93
2023/04/02 06:11:06;;;;;;;7.95;7.53;;;;;;;;;;5098899;28;20419;-93
2023/04/02 06:13:33;;;;;;;7.68;7.28;;;;;;;;;;5098658;28;20048;-93
2023/04/02 06:16:00;;;;;;;6.13;5.70;;;;;;;;;;5098646;28;20131;-93
2023/04/02 06:18:27;;;;;;;6.20;5.80;;;;;;;;;;5098713;28;20048;-93
2023/04/02 06:20:55;;;;;;;5.65;5.35;;;;;;;;;;5095738;28;20048;-93
2023/04/02 06:23:24;;;;;;;7.32;6.82;;;;;;;;;;5099324;28;20055;-93
2023/04/02 06:25:53;;;;;;;5.60;5.30;;;;;;;;;;5098823;28;20052;-93
2023/04/02 06:28:21;;;;;;;5.55;5.25;;;;;;;;;;5098125;28;20047;-93
2023/04/02 06:30:48;;;;;;;7.95;7.55;;;;;;;;;;5098252;28;20177;-93
2023/04/02 06:33:15;;;;;;;6.93;6.53;;;;;;;;;;5082248;28;20051;-92
2023/04/02 06:35:45;;;;;;;4.75;4.45;;;;;;;;;;5077879;28;20048;-93
2023/04/02 06:38:17;;;;;;;6.65;6.28;;;;;;;;;;5095266;28;20044;-93
2023/04/02 06:40:45;;;;;;;5.90;5.55;;;;;;;;;;5098184;28;20492;-92
2023/04/02 06:43:16;;;;;;;4.80;4.60;;;;;;;;;;5097914;28;20093;-93
2023/04/02 06:45:45;;;;;;;8.10;7.80;;;;;;;;;;5078109;28;20424;-93
2023/04/02 06:48:14;;;;;;;5.75;5.55;;;;;;;;;;5077613;28;20131;-93
2023/04/02 06:50:44;;;;;;;6.75;6.45;;;;;;;;;;5078076;28;20052;-94
2023/04/02 06:53:18;;;;;;;7.20;6.90;;;;;;;;;;5077309;28;20048;-93
2023/04/02 06:55:46;;;;;;;6.90;6.50;;;;;;;;;;5077468;28;20056;-92
2023/04/02 06:58:15;;;;;;;4.72;4.53;;;;;;;;;;5095045;28;20048;-93
2023/04/02 07:00:43;;;;;;;5.55;5.25;;;;;;;;;;5097930;28;20075;-93
2023/04/02 07:03:14;;;;;;;5.72;5.53;;;;;;;;;;5097366;28;20492;-94
2023/04/02 07:05:41;;;;;;;6.00;5.70;;;;;;;;;;5095022;28;20062;-94
2023/04/02 07:08:08;;;;;;;4.20;4.00;;;;;;;;;;5098289;28;20549;-95
2023/04/02 07:10:36;;;;;;;7.70;7.38;;;;;;;;;;5097503;28;20411;-94
2023/04/02 07:13:03;;;;;;;5.75;5.45;;;;;;;;;;5098011;28;20101;-94
2023/04/02 07:15:29;;;;;;;8.05;7.65;;;;;;;;;;5096747;28;20044;-94
2023/04/02 07:17:57;;;;;;;9.50;9.00;;;;;;;;;;5086776;28;20051;-94
2023/04/02 07:20:26;;;;;;;8.40;8.02;;;;;;;;;;5077006;28;20494;-94
2023/04/02 07:22:53;;;;;;;8.57;8.23;;;;;;;;;;5077191;28;20087;-94
2023/04/02 07:25:19;;;;;;;9.85;9.38;;;;;;;;;;5077582;28;20057;-94
2023/04/02 07:27:47;;;;;;;12.00;11.50;;;;;;;;;;5076689;28;20094;-94
2023/04/02 07:30:14;;;;;;;9.20;8.80;;;;;;;;;;5076630;28;20062;-93
2023/04/02 07:32:41;;;;;;;10.73;10.32;;;;;;;;;;5077354;28;20052;-94
2023/04/02 07:35:08;;;;;;;11.10;10.68;;;;;;;;;;5076778;28;20494;-94
2023/04/02 07:37:35;;;;;;;10.00;9.10;;;;;;;;;;5076643;28;20055;-95
2023/04/02 07:40:02;;;;;;;9.38;8.98;;;;;;;;;;5094762;28;20479;-93
2023/04/02 07:42:29;;;;;;;10.68;10.25;;;;;;;;;;5096885;28;20056;-94
2023/04/02 07:44:57;;;;;;;12.38;11.77;;;;;;;;;;5097817;28;20043;-93
2023/04/02 07:47:23;;;;;;;10.27;9.82;;;;;;;;;;5096346;28;20503;-93
2023/04/02 07:49:53;;;;;;;10.13;9.73;;;;;;;;;;5096818;28;20496;-94
2023/04/02 07:52:20;;;;;;;7.65;7.35;;;;;;;;;;5097547;28;20056;-93
2023/04/02 07:54:46;;;;;;;16.63;15.80;;;;;;;;;;5097074;28;20051;-94
2023/04/02 07:57:13;;;;;;;9.82;9.43;;;;;;;;;;5096001;28;20051;-94
2023/04/02 07:59:40;;;;;;;9.88;9.48;;;;;;;;;;5098614;28;20044;-94
2023/04/02 08:02:16;;;;;;;8.73;8.40;;;;;;;;;;5096373;28;20134;-95
2023/04/02 08:04:42;;;;;;;14.13;13.63;;;;;;;;;;5096645;28;20040;-95
2023/04/02 08:07:09;;;;;;;13.27;12.77;;;;;;;;;;5103984;28;20129;-96
2023/04/02 08:09:35;;;;;;;13.52;13.00;;;;;;;;;;5096461;28;20055;-95
2023/04/02 08:12:02;;;;;;;10.90;10.32;;;;;;;;;;5096138;28;20052;-95
2023/04/02 08:14:29;;;;;;;11.30;10.88;;;;;;;;;;5096035;28;20051;-95
2023/04/02 08:16:55;;;;;;;18.05;17.30;;;;;;;;;;5095564;28;20444;-95
2023/04/02 08:19:24;;;;;;;21.45;20.67;;;;;;;;;;5096373;28;20058;-95
2023/04/02 08:21:50;;;;;;;12.35;11.85;;;;;;;;;;5096215;28;20048;-96
2023/04/02 08:24:17;;;;;;;11.48;10.98;;;;;;;;;;5092182;28;20097;-93
2023/04/02 08:26:44;;;;;;;11.63;11.23;;;;;;;;;;5088837;28;20044;-96
2023/04/02 08:29:11;;;;;;;12.38;11.88;;;;;;;;;;5076168;28;20045;-96
2023/04/02 08:31:38;;;;;;;15.07;14.48;;;;;;;;;;5075264;28;20049;-96
2023/04/02 08:34:04;;;;;;;12.65;12.02;;;;;;;;;;5082067;28;20059;-95
2023/04/02 08:36:35;;;;;;;20.58;19.67;;;;;;;;;;5108623;28;20448;-96
2023/04/02 08:39:03;;;;;;;13.90;13.38;;;;;;;;;;5117123;28;20055;-93
2023/04/02 08:41:35;;;;;;;13.73;13.23;;;;;;;;;;5116556;28;20047;-95
2023/04/02 08:44:18;;;;;;;27.70;26.70;;;;;;;;;;5116017;28;20069;-94
2023/04/02 08:46:46;;;;;;;26.63;25.63;;;;;;;;;;5116298;28;20052;-94
2023/04/02 08:49:14;;;;;;;12.60;12.10;;;;;;;;;;5099470;28;20044;-94
2023/04/02 08:51:42;;;;;;;20.20;19.42;;;;;;;;;;5095033;28;20450;-96
2023/04/02 08:54:12;;;;;;;14.80;14.23;;;;;;;;;;5094536;28;20040;-94
2023/04/02 08:56:39;;;;;;;;;;;;;;;;;;5096548;28;20406;-94
2023/04/02 08:59:09;;;;;;;15.27;14.68;;;;;;;;;;5095339;28;19920;-95
2023/04/02 09:01:40;;;;;;;27.63;26.55;;;;;;;;;;5114410;28;20052;-95
2023/04/02 09:04:13;;;;;;;19.58;18.88;;;;;;;;;;5115733;28;20044;-95
2023/04/02 09:06:40;;;;;;;34.97;33.65;;;;;;;;;;5115345;28;20048;-94
2023/04/02 09:09:08;;;;;;;36.80;35.47;;;;;;;;;;5110581;28;20044;-95
2023/04/02 09:11:37;;;;;;;33.53;32.33;;;;;;;;;;5089702;28;20055;-95
2023/04/02 09:14:06;;;;;;;18.85;18.15;;;;;;;;;;5095569;28;20487;-95
2023/04/02 09:16:40;;;;;;;29.92;28.88;;;;;;;;;;5095692;28;20688;-93
2023/04/02 09:19:14;;;;;;;31.35;30.23;;;;;;;;;;5094667;28;20202;-93
2023/04/02 09:21:41;;;;;;;36.05;34.63;;;;;;;;;;5096945;28;20048;-94
2023/04/02 09:24:11;;;;;;;34.30;33.05;;;;;;;;;;5097751;28;20063;-94
2023/04/02 09:26:37;;;;;;;19.52;18.67;;;;;;;;;;5099046;28;20107;-96
2023/04/02 09:29:16;;;;;;;29.15;28.13;;;;;;;;;;5099309;28;20423;-96
2023/04/02 09:31:46;;;;;;;31.48;30.30;;;;;;;;;;5103746;28;20055;-96
2023/04/02 09:34:27;;;;;;;40.25;38.80;;;;;;;;;;5105634;28;20510;-96
2023/04/02 09:36:53;;;;;;;40.00;38.58;;;;;;;;;;5106492;28;20131;-96
2023/04/02 09:39:24;;;;;;;37.17;35.78;;;;;;;;;;5106471;28;20048;-96
2023/04/02 09:41:51;;;;;;;35.95;34.67;;;;;;;;;;5099383;28;20042;-96
2023/04/02 09:44:22;;;;;;;40.40;38.97;;;;;;;;;;5103574;28;20076;-96
2023/04/02 09:46:51;;;;;;;34.70;33.47;;;;;;;;;;5098335;28;20055;-96
2023/04/02 09:49:18;;;;;;;36.50;35.20;;;;;;;;;;5105289;28;20118;-96
2023/04/02 09:51:45;;;;;;;35.38;34.08;;;;;;;;;;5105069;28;20056;-96
2023/04/02 09:54:14;;;;;;;40.92;39.42;;;;;;;;;;5104122;28;20515;-95
2023/04/02 09:56:59;;;;;;;40.00;38.50;;;;;;;;;;5099882;28;20101;-96
2023/04/02 09:59:25;;;;;;;34.00;32.80;;;;;;;;;;5099200;28;20071;-96
2023/04/02 10:01:59;;;;;;;41.55;40.08;;;;;;;;;;5105058;28;20119;-96
2023/04/02 10:04:34;;;;;;;36.33;35.03;;;;;;;;;;5106242;28;20044;-96
2023/04/02 10:07:00;;;;;;;49.58;47.78;;;;;;;;;;5104534;28;20491;-96
2023/04/02 10:09:29;;;;;;;46.15;44.55;;;;;;;;;;5098228;28;20055;-96
2023/04/02 10:11:57;;;;;;;46.65;44.95;;;;;;;;;;5104098;28;20066;-93
2023/04/02 10:14:25;;;;;;;38.60;37.22;;;;;;;;;;5088577;28;20045;-94
2023/04/02 10:16:53;;;;;;;54.25;52.40;;;;;;;;;;5086985;28;20057;-96
2023/04/02 10:19:26;;;;;;;47.80;46.10;;;;;;;;;;5085709;28;20051;-95
2023/04/02 10:21:54;;;;;;;39.63;38.22;;;;;;;;;;5103208;28;20052;-96
2023/04/02 10:24:20;;;;;;;48.17;46.47;;;;;;;;;;5106034;28;20048;-96
2023/04/02 10:26:53;;;;;;;44.25;42.72;;;;;;;;;;5104259;28;20074;-96
2023/04/02 10:29:37;;;;;;;40.17;38.70;;;;;;;;;;5104744;28;20051;-95
2023/04/02 10:32:08;;;;;;;50.45;48.55;;;;;;;;;;5063191;28;20069;-94
2023/04/02 10:34:39;;;;;;;47.92;46.22;;;;;;;;;;5061569;28;20080;-93
2023/04/02 10:37:12;;;;;;;50.45;48.67;;;;;;;;;;5068867;28;20075;-93
2023/04/02 10:39:41;;;;;;;52.80;50.92;;;;;;;;;;5067048;28;20049;-96
2023/04/02 10:42:12;;;;;;;61.88;59.75;;;;;;;;;;5063392;28;20102;-94
2023/04/02 10:44:44;;;;;;;53.05;51.00;;;;;;;;;;5058191;28;20056;-95
2023/04/02 10:47:20;;;;;;;49.20;47.50;;;;;;;;;;5066310;28;20056;-93
2023/04/02 10:49:50;;;;;;;49.65;47.67;;;;;;;;;;5071742;28;20044;-94
2023/04/02 10:52:20;;;;;;;44.15;42.60;;;;;;;;;;5072372;28;20041;-96
2023/04/02 10:54:48;;;;;;;48.20;46.53;;;;;;;;;;5067278;28;20049;-94
2023/04/02 10:57:30;;;;;;;54.38;52.53;;;;;;;;;;5070513;28;20084;-94
2023/04/02 10:59:59;;;;;;;51.35;49.55;;;;;;;;;;5064680;28;20136;-95
2023/04/02 11:02:31;;;;;;;49.95;48.25;;;;;;;;;;5063326;28;20095;-96
2023/04/02 11:05:00;;;;;;;44.30;42.78;;;;;;;;;;5063441;28;20584;-96
2023/04/02 11:07:28;;;;;;;45.60;43.97;;;;;;;;;;5059860;28;20055;-91
2023/04/02 11:09:56;;;;;;;50.22;48.42;;;;;;;;;;5056462;28;20049;-95
2023/04/02 11:12:24;;;;;;;58.38;56.35;;;;;;;;;;5058795;28;20053;-93
2023/04/02 11:14:52;;;;;;;47.88;46.20;;;;;;;;;;5059719;28;20135;-94
2023/04/02 11:17:19;;;;;;;53.95;52.05;;;;;;;;;;5060237;28;20057;-95
2023/04/02 11:19:51;;;;;;;52.70;50.65;;;;;;;;;;5070912;28;20041;-93
2023/04/02 11:22:20;;;;;;;41.33;39.85;;;;;;;;;;5073937;28;20100;-95
2023/04/02 11:24:48;;;;;;;38.13;36.80;;;;;;;;;;5059306;28;20049;-95
2023/04/02 11:27:24;;;;;;;41.15;39.63;;;;;;;;;;5060384;28;20048;-94
2023/04/02 11:29:52;;;;;;;35.10;33.85;;;;;;;;;;5080520;28;20055;-94
2023/04/02 11:32:27;;;;;;;32.33;31.20;;;;;;;;;;5105480;28;20096;-92
2023/04/02 11:35:08;;;;;;;46.70;45.03;;;;;;;;;;5096884;28;20135;-96
2023/04/02 11:37:38;;;;;;;35.03;33.75;;;;;;;;;;5083902;28;20052;-95
2023/04/02 11:40:27;;;;;;;18.27;17.63;;;;;;;;;;5097153;28;20333;-94
2023/04/02 11:42:53;;;;;;;42.65;41.15;;;;;;;;;;5096696;28;20048;-94
2023/04/02 11:45:47;;;;;;;46.22;44.60;;;;;;;;;;5095000;28;20101;-94
2023/04/02 11:48:26;;;;;;;28.83;27.80;;;;;;;;;;5096061;28;20404;-95
2023/04/02 11:50:53;;;;;;;38.13;36.78;;;;;;;;;;5095747;28;20488;-94
2023/04/02 11:53:21;;;;;;;43.42;41.90;;;;;;;;;;5103199;28;20040;-93
2023/04/02 11:56:03;;;;;;;40.38;38.97;;;;;;;;;;5116227;28;20078;-94
2023/04/02 11:58:34;;;;;;;43.80;42.22;;;;;;;;;;5116666;28;20055;-95
2023/04/02 12:01:19;;;;;;;43.10;41.60;;;;;;;;;;5096069;28;20134;-95
2023/04/02 12:03:53;;;;;;;44.67;43.10;;;;;;;;;;5106039;28;20047;-93
2023/04/02 12:06:24;;;;;;;33.30;32.10;;;;;;;;;;5093609;28;20518;-94
2023/04/02 12:09:03;;;;;;;47.00;45.40;;;;;;;;;;5096337;28;20122;-94
2023/04/02 12:11:31;;;;;;;46.97;45.35;;;;;;;;;;5096452;28;20048;-94
2023/04/02 12:13:58;;;;;;;47.95;46.35;;;;;;;;;;5096105;28;20097;-95
2023/04/02 12:16:30;;;;;;;48.33;46.65;;;;;;;;;;5099544;28;20093;-94
2023/04/02 12:18:57;;;;;;;35.85;34.55;;;;;;;;;;5098034;28;20059;-92
2023/04/02 12:21:25;;;;;;;38.72;37.35;;;;;;;;;;5085979;28;20086;-94
2023/04/02 12:23:52;;;;;;;39.95;38.55;;;;;;;;;;5093317;28;20056;-94
2023/04/02 12:26:37;;;;;;;40.25;38.85;;;;;;;;;;5095894;28;20047;-94
2023/04/02 12:29:24;;;;;;;37.95;36.63;;;;;;;;;;5097097;28;20117;-93
2023/04/02 12:31:51;;;;;;;36.35;35.05;;;;;;;;;;5075977;28;20048;-93
2023/04/02 12:34:18;;;;;;;32.33;31.13;;;;;;;;;;5085357;28;20040;-93
2023/04/02 12:36:52;;;;;;;34.08;32.88;;;;;;;;;;5091393;28;20048;-92
2023/04/02 12:39:19;;;;;;;38.95;37.53;;;;;;;;;;5080401;28;20059;-91
2023/04/02 12:41:47;;;;;;;42.83;41.30;;;;;;;;;;5094301;28;20498;-93
2023/04/02 12:44:16;;;;;;;36.72;35.42;;;;;;;;;;5092674;28;20063;-91
2023/04/02 12:46:43;;;;;;;40.83;39.35;;;;;;;;;;5096032;28;20119;-93
2023/04/02 12:49:19;;;;;;;39.85;38.40;;;;;;;;;;5095592;28;20056;-93
2023/04/02 12:51:46;;;;;;;32.88;31.70;;;;;;;;;;5076291;28;20048;-93
2023/04/02 12:54:15;;;;;;;31.90;30.80;;;;;;;;;;5095661;28;20052;-92
2023/04/02 12:56:41;;;;;;;33.60;32.40;;;;;;;;;;5095371;28;20048;-91
2023/04/02 12:59:26;;;;;;;39.33;37.95;;;;;;;;;;5093733;28;20048;-93
2023/04/02 13:01:56;;;;;;;19.83;19.10;;;;;;;;;;5092201;28;20385;-94
2023/04/02 13:04:23;;;;;;;33.05;31.85;;;;;;;;;;5096527;28;20138;-92
2023/04/02 13:06:53;;;;;;;39.67;37.88;;;;;;;;;;5087606;28;20044;-92
2023/04/02 13:09:20;;;;;;;;;;;;;;;;;;5078886;28;20404;-94
2023/04/02 13:11:46;;;;;;;24.08;23.20;;;;;;;;;;5078258;28;20261;-94
2023/04/02 13:14:17;;;;;;;36.10;34.80;;;;;;;;;;5091542;28;20112;-94
2023/04/02 13:16:45;;;;;;;18.85;18.15;;;;;;;;;;5093787;28;20414;-92
2023/04/02 13:19:21;;;;;;;34.60;33.38;;;;;;;;;;5095005;28;20048;-94
2023/04/02 13:21:47;;;;;;;33.47;32.28;;;;;;;;;;5075657;28;20132;-91
2023/04/02 13:24:17;;;;;;;42.50;41.00;;;;;;;;;;5094688;28;20048;-92
2023/04/02 13:26:44;;;;;;;35.53;34.30;;;;;;;;;;5094665;28;20120;-92
2023/04/02 13:29:17;;;;;;;38.35;37.00;;;;;;;;;;5094678;28;20100;-92
2023/04/02 13:31:45;;;;;;;37.97;36.65;;;;;;;;;;5094052;28;20063;-92
2023/04/02 13:34:13;;;;;;;33.63;32.40;;;;;;;;;;5091999;28;20115;-93
2023/04/02 13:36:39;;;;;;;37.33;36.03;;;;;;;;;;5096410;28;20067;-92
2023/04/02 13:39:06;;;;;;;39.28;37.90;;;;;;;;;;5086925;28;20169;-92
2023/04/02 13:41:34;;;;;;;29.80;28.73;;;;;;;;;;5097878;28;20047;-92
2023/04/02 13:44:02;;;;;;;27.95;26.95;;;;;;;;;;5098431;28;20462;-92
2023/04/02 13:46:29;;;;;;;34.90;33.70;;;;;;;;;;5097012;28;20044;-92
2023/04/02 13:48:58;;;;;;;22.20;21.40;;;;;;;;;;5094931;28;20462;-92
2023/04/02 13:51:27;;;;;;;28.52;27.50;;;;;;;;;;5093869;28;20470;-92
2023/04/02 13:53:55;;;;;;;35.13;33.90;;;;;;;;;;5087837;28;20044;-93
2023/04/02 13:56:23;;;;;;;22.23;21.40;;;;;;;;;;5095192;28;20279;-92
2023/04/02 13:58:50;;;;;;;28.67;27.60;;;;;;;;;;5087889;28;20040;-93
2023/04/02 14:01:17;;;;;;;29.27;28.17;;;;;;;;;;5099078;28;20078;-93
2023/04/02 14:03:44;;;;;;;30.27;29.17;;;;;;;;;;5082820;28;20048;-93
2023/04/02 14:06:15;;;;;;;30.75;29.65;;;;;;;;;;5090929;28;20044;-93
2023/04/02 14:08:48;;;;;;;28.40;27.33;;;;;;;;;;5094564;28;20059;-92
2023/04/02 14:11:26;;;;;;;14.57;13.98;;;;;;;;;;5106825;28;20043;-93
2023/04/02 14:14:03;;;;;;;29.00;27.85;;;;;;;;;;5103132;28;20131;-93
2023/04/02 14:16:29;;;;;;;;;;;;;;;;;;5094633;28;20560;-93
2023/04/02 14:19:01;;;;;;;29.52;28.42;;;;;;;;;;5096681;28;19924;-93
2023/04/02 14:21:34;;;;;;;27.98;26.98;;;;;;;;;;5093186;28;20059;-93
2023/04/02 14:24:07;;;;;;;27.60;26.60;;;;;;;;;;5094295;28;20448;-93
2023/04/02 14:26:38;;;;;;;30.80;29.70;;;;;;;;;;5098996;28;20040;-93
2023/04/02 14:29:08;;;;;;;31.80;30.67;;;;;;;;;;5081604;28;20049;-93
2023/04/02 14:31:37;;;;;;;32.88;31.67;;;;;;;;;;5098987;28;20054;-92
2023/04/02 14:34:09;;;;;;;31.85;30.67;;;;;;;;;;5105249;28;20044;-94
2023/04/02 14:36:41;;;;;;;32.95;31.75;;;;;;;;;;5086889;28;20052;-95
2023/04/02 14:39:12;;;;;;;30.17;29.13;;;;;;;;;;5093587;28;20050;-95
2023/04/02 14:41:42;;;;;;;30.08;28.98;;;;;;;;;;5080941;28;20557;-93
2023/04/02 14:44:11;;;;;;;27.88;26.85;;;;;;;;;;5077926;28;20147;-93
2023/04/02 14:46:38;;;;;;;25.25;24.33;;;;;;;;;;5093933;28;20040;-94
2023/04/02 14:49:10;;;;;;;34.63;33.35;;;;;;;;;;5098675;28;20109;-94